الصفحة الرئيسية
METAR-TAF:

METAR-TAF

مطار :

مابوتو, موزمبيق

دائرة عرض: 25-55S, خط طول: 032-34E, ارتفاع: 39 متر

مراقبة الطقس الحالي

تاريخ ووقت الإصدار 1ساعة و 5 دقيقة قبل الساعة 02:00UTC
ريح 3 عقدة من الجنوب الغربي
درجة الحرارة 21°درجة مئوية
الرطوبة 88%
ضغط 1015 hPa
الرؤية 10 كم أو أكثر
غيوم مفككة على ارتفاع 2000 قدم

METAR: FQMA 220200Z 23003KT 9999 BKN020 21/19 Q1015 NOSIG

زمن: 05:05 (03:05 UTC)

توقعات

تاريخ ووقت الإصدار 23ساعات و 5 دقيقة قبل الساعة 04:00UTC
التوقعات صالحة من21 الساعة 06 UTC إلى 22 الساعة 12 UTC
ريح 8 عقدة من الجنوب الغربي
الرؤية 10 كم أو أكثر
غيوم مفككة على ارتفاع 2000 قدم
أصبح
من 21 الساعة 12 UTC إلى 21 الساعة 14 UTC
ريح 12 عقدة من الجنوب/الجنوب الشرقي
أصبح
من 21 الساعة 20 UTC إلى 21 الساعة 22 UTC
ريح 8 عقدة من الجنوب الغربي

TAF: FQMA 210400Z 2106/2212 23008KT 9999 BKN020 BECMG 2112/2114 15012KT BECMG 2120/2122 22008KT TX29/2113Z TN25/2203Z

أرصاد الطقس والتوقعات من أكثر من 4000 مطار (تقارير الطقس للمطار METAR والتنبؤ بالطقس بالمطارTAF).

المحطات المتاحة هي النقط الصفراء والحمراء على الخريطة.

حرك المؤشر فوق النقطة لمعرفة اسم المحطة.

ثم انقر لمعرفة أرصاد وتوقعات الطقس.

لتغيير الخارطة: اضغط على الأزرار الخضراء مع رمز الصليب الأسود للتكبير. على الزر الأخضر مع شرطة للتصغير، أو على الأسهم الخضراء للخرائط المجاورة.


METAR-TAF: